sensor_id;sensor_type;location;lat;lon;timestamp;P1;durP1;ratioP1;P2;durP2;ratioP2
56457;SDS011;42360;42.918;12.366;2022-12-18T00:00:57;4.35;;;3.13;;
56457;SDS011;42360;42.918;12.366;2022-12-18T00:03:22;4.93;;;3.17;;
56457;SDS011;42360;42.918;12.366;2022-12-18T00:05:48;4.97;;;3.08;;
56457;SDS011;42360;42.918;12.366;2022-12-18T00:08:15;7.80;;;4.07;;
56457;SDS011;42360;42.918;12.366;2022-12-18T00:10:41;11.50;;;3.78;;
56457;SDS011;42360;42.918;12.366;2022-12-18T00:13:06;8.35;;;4.13;;
56457;SDS011;42360;42.918;12.366;2022-12-18T00:15:36;9.68;;;3.90;;
56457;SDS011;42360;42.918;12.366;2022-12-18T00:18:02;6.00;;;4.22;;
56457;SDS011;42360;42.918;12.366;2022-12-18T00:20:28;6.18;;;4.07;;
56457;SDS011;42360;42.918;12.366;2022-12-18T00:22:54;6.55;;;3.50;;
56457;SDS011;42360;42.918;12.366;2022-12-18T00:25:20;5.32;;;4.22;;
56457;SDS011;42360;42.918;12.366;2022-12-18T00:27:46;7.60;;;3.83;;
56457;SDS011;42360;42.918;12.366;2022-12-18T00:30:12;5.90;;;4.13;;
56457;SDS011;42360;42.918;12.366;2022-12-18T00:32:38;5.35;;;4.05;;
56457;SDS011;42360;42.918;12.366;2022-12-18T00:35:04;7.95;;;5.25;;
56457;SDS011;42360;42.918;12.366;2022-12-18T00:37:30;5.65;;;4.50;;
56457;SDS011;42360;42.918;12.366;2022-12-18T00:39:56;6.13;;;4.03;;
56457;SDS011;42360;42.918;12.366;2022-12-18T00:42:21;5.22;;;4.25;;
56457;SDS011;42360;42.918;12.366;2022-12-18T00:45:06;5.75;;;4.68;;
56457;SDS011;42360;42.918;12.366;2022-12-18T00:47:32;7.20;;;5.22;;
56457;SDS011;42360;42.918;12.366;2022-12-18T00:49:57;5.95;;;5.15;;
56457;SDS011;42360;42.918;12.366;2022-12-18T00:52:23;7.65;;;4.40;;
56457;SDS011;42360;42.918;12.366;2022-12-18T00:54:48;4.68;;;4.05;;
56457;SDS011;42360;42.918;12.366;2022-12-18T00:57:14;5.07;;;4.50;;
56457;SDS011;42360;42.918;12.366;2022-12-18T00:59:40;49.05;;;17.00;;
56457;SDS011;42360;42.918;12.366;2022-12-18T01:02:05;21.98;;;11.20;;
56457;SDS011;42360;42.918;12.366;2022-12-18T01:04:31;20.75;;;8.45;;
56457;SDS011;42360;42.918;12.366;2022-12-18T01:06:58;10.80;;;5.78;;
56457;SDS011;42360;42.918;12.366;2022-12-18T01:09:23;23.85;;;10.05;;
56457;SDS011;42360;42.918;12.366;2022-12-18T01:11:49;13.32;;;6.53;;
56457;SDS011;42360;42.918;12.366;2022-12-18T01:14:15;8.65;;;6.00;;
56457;SDS011;42360;42.918;12.366;2022-12-18T01:16:41;9.75;;;6.25;;
56457;SDS011;42360;42.918;12.366;2022-12-18T01:19:07;11.38;;;6.15;;
56457;SDS011;42360;42.918;12.366;2022-12-18T01:21:32;16.00;;;8.10;;
56457;SDS011;42360;42.918;12.366;2022-12-18T01:23:58;12.68;;;7.80;;
56457;SDS011;42360;42.918;12.366;2022-12-18T01:26:24;7.88;;;5.43;;
56457;SDS011;42360;42.918;12.366;2022-12-18T01:28:50;8.32;;;5.35;;
56457;SDS011;42360;42.918;12.366;2022-12-18T01:31:35;5.60;;;4.40;;
56457;SDS011;42360;42.918;12.366;2022-12-18T01:34:00;9.93;;;5.78;;
56457;SDS011;42360;42.918;12.366;2022-12-18T01:36:28;7.38;;;5.60;;
56457;SDS011;42360;42.918;12.366;2022-12-18T01:38:56;7.10;;;5.18;;
56457;SDS011;42360;42.918;12.366;2022-12-18T01:41:23;7.40;;;4.68;;
56457;SDS011;42360;42.918;12.366;2022-12-18T01:43:51;7.43;;;4.80;;
56457;SDS011;42360;42.918;12.366;2022-12-18T01:46:25;10.82;;;6.15;;
56457;SDS011;42360;42.918;12.366;2022-12-18T01:48:58;11.88;;;7.93;;
56457;SDS011;42360;42.918;12.366;2022-12-18T01:51:25;10.20;;;6.55;;
56457;SDS011;42360;42.918;12.366;2022-12-18T01:53:54;8.35;;;5.95;;
56457;SDS011;42360;42.918;12.366;2022-12-18T01:56:20;7.78;;;5.38;;
56457;SDS011;42360;42.918;12.366;2022-12-18T02:01:20;6.75;;;4.88;;
56457;SDS011;42360;42.918;12.366;2022-12-18T02:03:47;6.18;;;4.32;;
56457;SDS011;42360;42.918;12.366;2022-12-18T02:06:18;5.70;;;4.93;;
56457;SDS011;42360;42.918;12.366;2022-12-18T02:11:28;7.43;;;4.95;;
56457;SDS011;42360;42.918;12.366;2022-12-18T02:17:18;8.73;;;5.00;;
56457;SDS011;42360;42.918;12.366;2022-12-18T02:27:50;8.27;;;4.43;;
56457;SDS011;42360;42.918;12.366;2022-12-18T02:30:16;6.72;;;5.03;;
56457;SDS011;42360;42.918;12.366;2022-12-18T02:32:44;6.47;;;4.82;;
56457;SDS011;42360;42.918;12.366;2022-12-18T02:35:13;6.70;;;4.75;;
56457;SDS011;42360;42.918;12.366;2022-12-18T02:37:41;6.32;;;5.28;;
56457;SDS011;42360;42.918;12.366;2022-12-18T02:40:08;7.15;;;5.28;;
56457;SDS011;42360;42.918;12.366;2022-12-18T02:42:34;5.28;;;4.22;;
56457;SDS011;42360;42.918;12.366;2022-12-18T02:45:00;6.70;;;4.43;;
56457;SDS011;42360;42.918;12.366;2022-12-18T02:47:27;8.57;;;4.60;;
56457;SDS011;42360;42.918;12.366;2022-12-18T03:03:57;5.22;;;4.40;;
56457;SDS011;42360;42.918;12.366;2022-12-18T03:06:38;10.18;;;4.78;;
56457;SDS011;42360;42.918;12.366;2022-12-18T03:09:08;5.75;;;5.00;;
56457;SDS011;42360;42.918;12.366;2022-12-18T03:11:36;8.38;;;4.55;;
56457;SDS011;42360;42.918;12.366;2022-12-18T03:14:22;6.60;;;4.45;;
56457;SDS011;42360;42.918;12.366;2022-12-18T03:16:49;5.20;;;4.13;;
56457;SDS011;42360;42.918;12.366;2022-12-18T03:19:18;5.03;;;4.50;;
56457;SDS011;42360;42.918;12.366;2022-12-18T03:21:52;6.47;;;4.65;;
56457;SDS011;42360;42.918;12.366;2022-12-18T03:24:19;5.80;;;4.00;;
56457;SDS011;42360;42.918;12.366;2022-12-18T03:26:47;5.68;;;4.60;;
56457;SDS011;42360;42.918;12.366;2022-12-18T03:29:27;4.85;;;3.90;;
56457;SDS011;42360;42.918;12.366;2022-12-18T03:31:55;5.57;;;4.40;;
56457;SDS011;42360;42.918;12.366;2022-12-18T03:34:24;4.22;;;3.83;;
56457;SDS011;42360;42.918;12.366;2022-12-18T03:36:54;7.05;;;4.90;;
56457;SDS011;42360;42.918;12.366;2022-12-18T03:39:20;5.10;;;4.15;;
56457;SDS011;42360;42.918;12.366;2022-12-18T03:41:48;4.05;;;3.65;;
56457;SDS011;42360;42.918;12.366;2022-12-18T03:45:06;4.93;;;3.90;;
56457;SDS011;42360;42.918;12.366;2022-12-18T03:47:38;5.53;;;3.50;;
56457;SDS011;42360;42.918;12.366;2022-12-18T03:50:11;5.90;;;3.80;;
56457;SDS011;42360;42.918;12.366;2022-12-18T03:52:54;5.47;;;3.80;;
56457;SDS011;42360;42.918;12.366;2022-12-18T03:55:24;7.80;;;3.60;;
56457;SDS011;42360;42.918;12.366;2022-12-18T03:57:51;5.70;;;3.35;;
56457;SDS011;42360;42.918;12.366;2022-12-18T04:00:17;4.20;;;3.17;;
56457;SDS011;42360;42.918;12.366;2022-12-18T04:02:51;4.30;;;3.20;;
56457;SDS011;42360;42.918;12.366;2022-12-18T04:05:17;4.63;;;3.55;;
56457;SDS011;42360;42.918;12.366;2022-12-18T04:07:44;3.55;;;3.15;;
56457;SDS011;42360;42.918;12.366;2022-12-18T04:10:12;5.55;;;3.65;;
56457;SDS011;42360;42.918;12.366;2022-12-18T04:12:38;4.80;;;3.47;;
56457;SDS011;42360;42.918;12.366;2022-12-18T04:15:04;6.00;;;3.85;;
56457;SDS011;42360;42.918;12.366;2022-12-18T04:17:30;6.85;;;3.42;;
56457;SDS011;42360;42.918;12.366;2022-12-18T04:19:56;5.85;;;3.95;;
56457;SDS011;42360;42.918;12.366;2022-12-18T04:22:21;7.05;;;4.18;;
56457;SDS011;42360;42.918;12.366;2022-12-18T04:24:47;5.72;;;3.53;;
56457;SDS011;42360;42.918;12.366;2022-12-18T04:27:12;3.58;;;2.80;;
56457;SDS011;42360;42.918;12.366;2022-12-18T04:29:38;5.25;;;3.33;;
56457;SDS011;42360;42.918;12.366;2022-12-18T04:32:04;5.90;;;3.72;;
56457;SDS011;42360;42.918;12.366;2022-12-18T04:34:30;4.93;;;3.67;;
56457;SDS011;42360;42.918;12.366;2022-12-18T04:36:55;4.68;;;3.50;;
56457;SDS011;42360;42.918;12.366;2022-12-18T04:39:21;4.82;;;3.90;;
56457;SDS011;42360;42.918;12.366;2022-12-18T04:41:46;4.28;;;3.45;;
56457;SDS011;42360;42.918;12.366;2022-12-18T04:44:12;5.28;;;4.20;;
56457;SDS011;42360;42.918;12.366;2022-12-18T04:46:37;4.13;;;3.35;;
56457;SDS011;42360;42.918;12.366;2022-12-18T04:49:03;5.15;;;3.42;;
56457;SDS011;42360;42.918;12.366;2022-12-18T04:51:29;3.88;;;3.45;;
56457;SDS011;42360;42.918;12.366;2022-12-18T04:53:54;6.10;;;3.80;;
56457;SDS011;42360;42.918;12.366;2022-12-18T04:56:20;5.65;;;4.07;;
56457;SDS011;42360;42.918;12.366;2022-12-18T04:58:46;4.68;;;3.33;;
56457;SDS011;42360;42.918;12.366;2022-12-18T05:01:12;4.13;;;3.22;;
56457;SDS011;42360;42.918;12.366;2022-12-18T05:03:39;4.53;;;3.88;;
56457;SDS011;42360;42.918;12.366;2022-12-18T05:06:05;6.47;;;3.85;;
56457;SDS011;42360;42.918;12.366;2022-12-18T05:08:31;4.95;;;3.63;;
56457;SDS011;42360;42.918;12.366;2022-12-18T05:11:10;5.18;;;3.80;;
56457;SDS011;42360;42.918;12.366;2022-12-18T05:13:39;4.55;;;3.63;;
56457;SDS011;42360;42.918;12.366;2022-12-18T05:16:05;5.00;;;3.65;;
56457;SDS011;42360;42.918;12.366;2022-12-18T05:18:31;5.32;;;3.90;;
56457;SDS011;42360;42.918;12.366;2022-12-18T05:20:57;7.00;;;4.07;;
56457;SDS011;42360;42.918;12.366;2022-12-18T05:23:23;3.55;;;2.88;;
56457;SDS011;42360;42.918;12.366;2022-12-18T05:25:59;4.75;;;2.72;;
56457;SDS011;42360;42.918;12.366;2022-12-18T05:28:27;5.18;;;3.08;;
56457;SDS011;42360;42.918;12.366;2022-12-18T05:30:54;6.05;;;3.88;;
56457;SDS011;42360;42.918;12.366;2022-12-18T05:33:22;5.90;;;3.53;;
56457;SDS011;42360;42.918;12.366;2022-12-18T05:35:55;4.90;;;3.75;;
56457;SDS011;42360;42.918;12.366;2022-12-18T05:38:23;3.97;;;2.83;;
56457;SDS011;42360;42.918;12.366;2022-12-18T05:40:53;3.97;;;3.38;;
56457;SDS011;42360;42.918;12.366;2022-12-18T05:43:19;4.07;;;3.60;;
56457;SDS011;42360;42.918;12.366;2022-12-18T05:45:46;4.40;;;3.70;;
56457;SDS011;42360;42.918;12.366;2022-12-18T05:48:12;3.75;;;3.28;;
56457;SDS011;42360;42.918;12.366;2022-12-18T05:50:39;3.75;;;3.22;;
56457;SDS011;42360;42.918;12.366;2022-12-18T05:53:06;4.18;;;3.47;;
56457;SDS011;42360;42.918;12.366;2022-12-18T05:55:32;4.13;;;3.72;;
56457;SDS011;42360;42.918;12.366;2022-12-18T05:57:59;5.20;;;3.30;;
56457;SDS011;42360;42.918;12.366;2022-12-18T06:00:25;6.45;;;4.10;;
56457;SDS011;42360;42.918;12.366;2022-12-18T06:02:51;5.25;;;3.85;;
56457;SDS011;42360;42.918;12.366;2022-12-18T06:05:17;5.25;;;3.33;;
56457;SDS011;42360;42.918;12.366;2022-12-18T06:07:42;5.38;;;3.00;;
56457;SDS011;42360;42.918;12.366;2022-12-18T06:10:08;3.95;;;3.13;;
56457;SDS011;42360;42.918;12.366;2022-12-18T06:12:33;4.20;;;2.97;;
56457;SDS011;42360;42.918;12.366;2022-12-18T06:14:59;5.60;;;3.60;;
56457;SDS011;42360;42.918;12.366;2022-12-18T06:17:32;4.53;;;3.47;;
56457;SDS011;42360;42.918;12.366;2022-12-18T06:19:58;4.50;;;3.55;;
56457;SDS011;42360;42.918;12.366;2022-12-18T06:22:24;5.55;;;3.85;;
56457;SDS011;42360;42.918;12.366;2022-12-18T06:24:50;5.57;;;3.67;;
56457;SDS011;42360;42.918;12.366;2022-12-18T06:27:16;6.68;;;4.50;;
56457;SDS011;42360;42.918;12.366;2022-12-18T06:29:41;4.85;;;3.95;;
56457;SDS011;42360;42.918;12.366;2022-12-18T06:32:07;3.75;;;3.42;;
56457;SDS011;42360;42.918;12.366;2022-12-18T06:34:33;3.92;;;3.20;;
56457;SDS011;42360;42.918;12.366;2022-12-18T06:36:59;8.00;;;4.20;;
56457;SDS011;42360;42.918;12.366;2022-12-18T06:39:28;4.40;;;3.22;;
56457;SDS011;42360;42.918;12.366;2022-12-18T06:41:54;4.18;;;3.35;;
56457;SDS011;42360;42.918;12.366;2022-12-18T06:44:20;6.93;;;3.92;;
56457;SDS011;42360;42.918;12.366;2022-12-18T06:46:46;4.47;;;4.00;;
56457;SDS011;42360;42.918;12.366;2022-12-18T06:49:12;5.18;;;4.03;;
56457;SDS011;42360;42.918;12.366;2022-12-18T06:51:38;4.45;;;3.70;;
56457;SDS011;42360;42.918;12.366;2022-12-18T06:54:04;4.75;;;3.40;;
56457;SDS011;42360;42.918;12.366;2022-12-18T06:56:29;4.93;;;3.78;;
56457;SDS011;42360;42.918;12.366;2022-12-18T06:58:55;5.22;;;3.67;;
56457;SDS011;42360;42.918;12.366;2022-12-18T07:01:21;4.97;;;3.45;;
56457;SDS011;42360;42.918;12.366;2022-12-18T07:03:47;4.20;;;3.83;;
56457;SDS011;42360;42.918;12.366;2022-12-18T07:06:17;3.88;;;3.47;;
56457;SDS011;42360;42.918;12.366;2022-12-18T07:08:44;4.55;;;4.10;;
56457;SDS011;42360;42.918;12.366;2022-12-18T07:11:11;6.32;;;4.70;;
56457;SDS011;42360;42.918;12.366;2022-12-18T07:13:37;7.18;;;3.85;;
56457;SDS011;42360;42.918;12.366;2022-12-18T07:16:03;10.00;;;4.22;;
56457;SDS011;42360;42.918;12.366;2022-12-18T07:18:35;6.45;;;4.18;;
56457;SDS011;42360;42.918;12.366;2022-12-18T07:21:07;5.63;;;4.15;;
56457;SDS011;42360;42.918;12.366;2022-12-18T07:23:36;6.90;;;4.30;;
56457;SDS011;42360;42.918;12.366;2022-12-18T07:26:03;5.40;;;3.58;;
56457;SDS011;42360;42.918;12.366;2022-12-18T07:28:29;10.90;;;4.95;;
56457;SDS011;42360;42.918;12.366;2022-12-18T07:30:55;6.47;;;4.38;;
56457;SDS011;42360;42.918;12.366;2022-12-18T07:33:20;5.70;;;4.60;;
56457;SDS011;42360;42.918;12.366;2022-12-18T07:35:46;7.38;;;4.10;;
56457;SDS011;42360;42.918;12.366;2022-12-18T07:38:12;4.93;;;4.15;;
56457;SDS011;42360;42.918;12.366;2022-12-18T07:40:38;5.35;;;4.20;;
56457;SDS011;42360;42.918;12.366;2022-12-18T07:43:04;4.75;;;4.13;;
56457;SDS011;42360;42.918;12.366;2022-12-18T07:45:29;5.07;;;3.80;;
56457;SDS011;42360;42.918;12.366;2022-12-18T07:47:55;6.22;;;4.10;;
56457;SDS011;42360;42.918;12.366;2022-12-18T07:50:20;5.30;;;3.97;;
56457;SDS011;42360;42.918;12.366;2022-12-18T07:52:46;4.95;;;3.50;;
56457;SDS011;42360;42.918;12.366;2022-12-18T07:55:15;5.68;;;4.78;;
56457;SDS011;42360;42.918;12.366;2022-12-18T07:57:40;5.20;;;3.30;;
56457;SDS011;42360;42.918;12.366;2022-12-18T08:00:06;4.05;;;3.65;;
56457;SDS011;42360;42.918;12.366;2022-12-18T08:02:33;8.10;;;5.53;;
56457;SDS011;42360;42.918;12.366;2022-12-18T08:04:58;6.70;;;4.43;;
56457;SDS011;42360;42.918;12.366;2022-12-18T08:07:24;5.72;;;4.32;;
56457;SDS011;42360;42.918;12.366;2022-12-18T08:09:50;6.72;;;4.85;;
56457;SDS011;42360;42.918;12.366;2022-12-18T08:12:15;6.30;;;5.28;;
56457;SDS011;42360;42.918;12.366;2022-12-18T08:14:41;7.20;;;4.88;;
56457;SDS011;42360;42.918;12.366;2022-12-18T08:17:06;3.80;;;2.90;;
56457;SDS011;42360;42.918;12.366;2022-12-18T08:19:32;6.78;;;4.40;;
56457;SDS011;42360;42.918;12.366;2022-12-18T08:21:58;5.97;;;2.85;;
56457;SDS011;42360;42.918;12.366;2022-12-18T08:24:23;6.65;;;5.20;;
56457;SDS011;42360;42.918;12.366;2022-12-18T08:26:49;6.97;;;5.38;;
56457;SDS011;42360;42.918;12.366;2022-12-18T08:29:15;5.18;;;3.90;;
56457;SDS011;42360;42.918;12.366;2022-12-18T08:31:41;6.88;;;4.28;;
56457;SDS011;42360;42.918;12.366;2022-12-18T08:34:07;4.80;;;4.05;;
56457;SDS011;42360;42.918;12.366;2022-12-18T08:36:32;5.93;;;3.70;;
56457;SDS011;42360;42.918;12.366;2022-12-18T08:38:58;4.25;;;3.60;;
56457;SDS011;42360;42.918;12.366;2022-12-18T08:41:24;4.20;;;3.35;;
56457;SDS011;42360;42.918;12.366;2022-12-18T08:43:49;3.80;;;2.85;;
56457;SDS011;42360;42.918;12.366;2022-12-18T08:46:35;2.25;;;2.05;;
56457;SDS011;42360;42.918;12.366;2022-12-18T08:49:02;5.18;;;2.28;;
56457;SDS011;42360;42.918;12.366;2022-12-18T08:51:28;3.70;;;2.75;;
56457;SDS011;42360;42.918;12.366;2022-12-18T08:53:54;3.08;;;2.78;;
56457;SDS011;42360;42.918;12.366;2022-12-18T08:56:19;2.58;;;1.95;;
56457;SDS011;42360;42.918;12.366;2022-12-18T08:58:45;3.03;;;2.20;;
56457;SDS011;42360;42.918;12.366;2022-12-18T09:01:11;4.72;;;2.60;;
56457;SDS011;42360;42.918;12.366;2022-12-18T09:03:38;4.38;;;2.28;;
56457;SDS011;42360;42.918;12.366;2022-12-18T09:06:04;5.68;;;2.72;;
56457;SDS011;42360;42.918;12.366;2022-12-18T09:08:30;2.67;;;2.33;;
56457;SDS011;42360;42.918;12.366;2022-12-18T09:10:56;7.43;;;3.47;;
56457;SDS011;42360;42.918;12.366;2022-12-18T09:13:22;8.52;;;3.10;;
56457;SDS011;42360;42.918;12.366;2022-12-18T09:15:51;4.18;;;2.75;;
56457;SDS011;42360;42.918;12.366;2022-12-18T09:18:18;3.22;;;2.58;;
56457;SDS011;42360;42.918;12.366;2022-12-18T09:20:44;3.20;;;2.75;;
56457;SDS011;42360;42.918;12.366;2022-12-18T09:23:10;3.72;;;2.50;;
56457;SDS011;42360;42.918;12.366;2022-12-18T09:25:36;4.43;;;2.97;;
56457;SDS011;42360;42.918;12.366;2022-12-18T09:28:03;2.88;;;2.22;;
56457;SDS011;42360;42.918;12.366;2022-12-18T09:30:39;3.13;;;2.35;;
56457;SDS011;42360;42.918;12.366;2022-12-18T09:33:05;3.10;;;2.78;;
56457;SDS011;42360;42.918;12.366;2022-12-18T09:35:31;3.38;;;2.53;;
56457;SDS011;42360;42.918;12.366;2022-12-18T09:37:56;2.58;;;2.38;;
56457;SDS011;42360;42.918;12.366;2022-12-18T09:40:23;3.45;;;2.67;;
56457;SDS011;42360;42.918;12.366;2022-12-18T09:42:53;5.43;;;3.28;;
56457;SDS011;42360;42.918;12.366;2022-12-18T09:45:23;2.90;;;2.50;;
56457;SDS011;42360;42.918;12.366;2022-12-18T09:47:49;3.60;;;2.33;;
56457;SDS011;42360;42.918;12.366;2022-12-18T09:50:27;4.93;;;2.17;;
56457;SDS011;42360;42.918;12.366;2022-12-18T09:52:56;2.33;;;1.83;;
56457;SDS011;42360;42.918;12.366;2022-12-18T09:55:28;3.92;;;2.28;;
56457;SDS011;42360;42.918;12.366;2022-12-18T09:58:06;3.50;;;2.67;;
56457;SDS011;42360;42.918;12.366;2022-12-18T10:00:32;3.15;;;1.95;;
56457;SDS011;42360;42.918;12.366;2022-12-18T10:03:19;2.22;;;2.03;;
56457;SDS011;42360;42.918;12.366;2022-12-18T10:18:49;3.70;;;3.13;;
56457;SDS011;42360;42.918;12.366;2022-12-18T10:21:21;3.03;;;2.40;;
56457;SDS011;42360;42.918;12.366;2022-12-18T10:27:11;5.03;;;2.83;;
56457;SDS011;42360;42.918;12.366;2022-12-18T10:29:41;2.58;;;2.30;;
56457;SDS011;42360;42.918;12.366;2022-12-18T10:32:09;2.72;;;2.47;;
56457;SDS011;42360;42.918;12.366;2022-12-18T10:34:39;4.25;;;3.03;;
56457;SDS011;42360;42.918;12.366;2022-12-18T10:37:06;3.53;;;2.47;;
56457;SDS011;42360;42.918;12.366;2022-12-18T10:39:38;3.00;;;2.60;;
56457;SDS011;42360;42.918;12.366;2022-12-18T10:42:11;3.15;;;2.63;;
56457;SDS011;42360;42.918;12.366;2022-12-18T10:44:43;3.10;;;2.80;;
56457;SDS011;42360;42.918;12.366;2022-12-18T10:47:12;2.67;;;2.10;;
56457;SDS011;42360;42.918;12.366;2022-12-18T10:49:42;3.28;;;2.20;;
56457;SDS011;42360;42.918;12.366;2022-12-18T10:54:51;1.60;;;1.50;;
56457;SDS011;42360;42.918;12.366;2022-12-18T10:59:58;4.00;;;2.00;;
56457;SDS011;42360;42.918;12.366;2022-12-18T11:02:28;2.90;;;2.17;;
56457;SDS011;42360;42.918;12.366;2022-12-18T11:04:59;6.55;;;2.72;;
56457;SDS011;42360;42.918;12.366;2022-12-18T11:07:25;2.95;;;2.38;;
56457;SDS011;42360;42.918;12.366;2022-12-18T11:10:22;3.58;;;2.83;;
56457;SDS011;42360;42.918;12.366;2022-12-18T11:12:51;3.10;;;2.17;;
56457;SDS011;42360;42.918;12.366;2022-12-18T11:15:21;2.20;;;1.60;;
56457;SDS011;42360;42.918;12.366;2022-12-18T11:17:51;4.28;;;2.58;;
56457;SDS011;42360;42.918;12.366;2022-12-18T11:20:21;6.22;;;3.92;;
56457;SDS011;42360;42.918;12.366;2022-12-18T11:22:59;5.35;;;3.10;;
56457;SDS011;42360;42.918;12.366;2022-12-18T11:25:31;4.95;;;2.90;;
56457;SDS011;42360;42.918;12.366;2022-12-18T11:28:01;2.67;;;2.00;;
56457;SDS011;42360;42.918;12.366;2022-12-18T11:30:50;4.13;;;2.55;;
56457;SDS011;42360;42.918;12.366;2022-12-18T11:33:50;3.80;;;2.40;;
56457;SDS011;42360;42.918;12.366;2022-12-18T11:36:19;4.30;;;2.83;;
56457;SDS011;42360;42.918;12.366;2022-12-18T11:38:45;6.35;;;3.78;;
56457;SDS011;42360;42.918;12.366;2022-12-18T11:44:10;3.95;;;1.77;;
56457;SDS011;42360;42.918;12.366;2022-12-18T11:46:46;3.40;;;2.40;;
56457;SDS011;42360;42.918;12.366;2022-12-18T11:49:20;6.88;;;3.72;;
56457;SDS011;42360;42.918;12.366;2022-12-18T11:51:51;9.18;;;3.88;;
56457;SDS011;42360;42.918;12.366;2022-12-18T11:54:20;3.10;;;2.70;;
56457;SDS011;42360;42.918;12.366;2022-12-18T11:56:48;3.78;;;2.70;;
56457;SDS011;42360;42.918;12.366;2022-12-18T12:02:09;2.35;;;2.15;;
56457;SDS011;42360;42.918;12.366;2022-12-18T12:04:52;2.22;;;1.70;;
56457;SDS011;42360;42.918;12.366;2022-12-18T12:07:26;1.95;;;1.83;;
56457;SDS011;42360;42.918;12.366;2022-12-18T12:10:12;3.65;;;2.10;;
56457;SDS011;42360;42.918;12.366;2022-12-18T12:12:52;1.80;;;1.70;;
56457;SDS011;42360;42.918;12.366;2022-12-18T12:27:09;2.17;;;1.42;;
56457;SDS011;42360;42.918;12.366;2022-12-18T12:40:41;2.38;;;1.73;;
56457;SDS011;42360;42.918;12.366;2022-12-18T12:45:53;13.75;;;7.50;;
56457;SDS011;42360;42.918;12.366;2022-12-18T12:48:38;2.28;;;1.80;;
56457;SDS011;42360;42.918;12.366;2022-12-18T12:51:11;2.42;;;1.90;;
56457;SDS011;42360;42.918;12.366;2022-12-18T12:53:42;1.75;;;1.65;;
56457;SDS011;42360;42.918;12.366;2022-12-18T12:56:08;2.63;;;1.83;;
56457;SDS011;42360;42.918;12.366;2022-12-18T12:58:38;2.67;;;1.98;;
56457;SDS011;42360;42.918;12.366;2022-12-18T13:03:54;2.47;;;2.15;;
56457;SDS011;42360;42.918;12.366;2022-12-18T13:06:27;1.98;;;1.63;;
56457;SDS011;42360;42.918;12.366;2022-12-18T13:08:57;2.22;;;1.60;;
56457;SDS011;42360;42.918;12.366;2022-12-18T13:14:24;2.55;;;1.35;;
56457;SDS011;42360;42.918;12.366;2022-12-18T13:20:06;1.95;;;1.65;;
56457;SDS011;42360;42.918;12.366;2022-12-18T13:22:37;1.85;;;1.50;;
56457;SDS011;42360;42.918;12.366;2022-12-18T13:25:49;13.05;;;6.75;;
56457;SDS011;42360;42.918;12.366;2022-12-18T13:27:59;4.40;;;3.25;;
56457;SDS011;42360;42.918;12.366;2022-12-18T13:43:47;2.45;;;1.50;;
56457;SDS011;42360;42.918;12.366;2022-12-18T13:46:24;2.28;;;1.60;;
56457;SDS011;42360;42.918;12.366;2022-12-18T13:51:41;1.75;;;1.63;;
56457;SDS011;42360;42.918;12.366;2022-12-18T13:54:25;1.50;;;1.27;;
56457;SDS011;42360;42.918;12.366;2022-12-18T13:57:04;2.88;;;1.75;;
56457;SDS011;42360;42.918;12.366;2022-12-18T13:59:35;2.65;;;2.00;;
56457;SDS011;42360;42.918;12.366;2022-12-18T14:02:14;2.28;;;1.63;;
56457;SDS011;42360;42.918;12.366;2022-12-18T14:04:44;3.85;;;3.00;;
56457;SDS011;42360;42.918;12.366;2022-12-18T14:07:12;3.95;;;2.60;;
56457;SDS011;42360;42.918;12.366;2022-12-18T14:09:40;4.32;;;3.10;;
56457;SDS011;42360;42.918;12.366;2022-12-18T14:12:14;4.35;;;3.17;;
56457;SDS011;42360;42.918;12.366;2022-12-18T14:15:02;4.80;;;2.47;;
56457;SDS011;42360;42.918;12.366;2022-12-18T14:17:28;2.15;;;1.88;;
56457;SDS011;42360;42.918;12.366;2022-12-18T14:19:56;6.45;;;4.28;;
56457;SDS011;42360;42.918;12.366;2022-12-18T14:22:23;7.40;;;4.70;;
56457;SDS011;42360;42.918;12.366;2022-12-18T14:27:42;10.65;;;8.13;;
56457;SDS011;42360;42.918;12.366;2022-12-18T14:30:44;6.43;;;3.72;;
56457;SDS011;42360;42.918;12.366;2022-12-18T14:35:37;3.53;;;2.78;;
56457;SDS011;42360;42.918;12.366;2022-12-18T14:40:36;5.38;;;4.85;;
56457;SDS011;42360;42.918;12.366;2022-12-18T14:43:02;3.78;;;2.90;;
56457;SDS011;42360;42.918;12.366;2022-12-18T14:45:38;3.28;;;2.22;;
56457;SDS011;42360;42.918;12.366;2022-12-18T14:50:54;3.30;;;2.33;;
56457;SDS011;42360;42.918;12.366;2022-12-18T14:53:35;2.40;;;1.90;;
56457;SDS011;42360;42.918;12.366;2022-12-18T14:56:15;2.08;;;1.73;;
56457;SDS011;42360;42.918;12.366;2022-12-18T14:58:46;2.50;;;1.95;;
56457;SDS011;42360;42.918;12.366;2022-12-18T15:01:27;2.63;;;2.42;;
56457;SDS011;42360;42.918;12.366;2022-12-18T15:03:54;18.80;;;10.25;;
56457;SDS011;42360;42.918;12.366;2022-12-18T15:06:25;16.35;;;9.00;;
56457;SDS011;42360;42.918;12.366;2022-12-18T15:08:51;21.05;;;12.70;;
56457;SDS011;42360;42.918;12.366;2022-12-18T15:13:57;4.80;;;2.47;;
56457;SDS011;42360;42.918;12.366;2022-12-18T15:16:24;3.50;;;2.47;;
56457;SDS011;42360;42.918;12.366;2022-12-18T15:18:50;2.10;;;1.92;;
56457;SDS011;42360;42.918;12.366;2022-12-18T15:21:19;2.15;;;1.58;;
56457;SDS011;42360;42.918;12.366;2022-12-18T15:26:17;2.22;;;1.92;;
56457;SDS011;42360;42.918;12.366;2022-12-18T15:28:45;2.00;;;1.80;;
56457;SDS011;42360;42.918;12.366;2022-12-18T15:33:45;3.28;;;1.98;;
56457;SDS011;42360;42.918;12.366;2022-12-18T15:36:26;3.35;;;2.08;;
56457;SDS011;42360;42.918;12.366;2022-12-18T15:38:52;3.90;;;2.25;;
56457;SDS011;42360;42.918;12.366;2022-12-18T15:41:20;2.35;;;2.10;;
56457;SDS011;42360;42.918;12.366;2022-12-18T15:43:50;2.70;;;2.40;;
56457;SDS011;42360;42.918;12.366;2022-12-18T15:48:52;3.63;;;2.50;;
56457;SDS011;42360;42.918;12.366;2022-12-18T15:51:26;2.92;;;2.40;;
56457;SDS011;42360;42.918;12.366;2022-12-18T15:53:54;3.20;;;2.58;;
56457;SDS011;42360;42.918;12.366;2022-12-18T15:56:22;4.07;;;3.20;;
56457;SDS011;42360;42.918;12.366;2022-12-18T15:59:10;3.88;;;2.63;;
56457;SDS011;42360;42.918;12.366;2022-12-18T16:01:38;2.38;;;2.17;;
56457;SDS011;42360;42.918;12.366;2022-12-18T16:04:05;2.50;;;2.10;;
56457;SDS011;42360;42.918;12.366;2022-12-18T16:06:30;3.85;;;3.03;;
56457;SDS011;42360;42.918;12.366;2022-12-18T16:08:56;4.80;;;3.22;;
56457;SDS011;42360;42.918;12.366;2022-12-18T16:11:23;4.68;;;2.47;;
56457;SDS011;42360;42.918;12.366;2022-12-18T16:14:15;3.83;;;3.05;;
56457;SDS011;42360;42.918;12.366;2022-12-18T16:16:42;2.83;;;2.30;;
56457;SDS011;42360;42.918;12.366;2022-12-18T16:19:08;3.40;;;2.42;;
56457;SDS011;42360;42.918;12.366;2022-12-18T16:21:33;4.28;;;2.70;;
56457;SDS011;42360;42.918;12.366;2022-12-18T16:23:59;3.95;;;2.95;;
56457;SDS011;42360;42.918;12.366;2022-12-18T16:26:24;3.25;;;2.45;;
56457;SDS011;42360;42.918;12.366;2022-12-18T16:28:50;2.90;;;2.60;;
56457;SDS011;42360;42.918;12.366;2022-12-18T16:31:15;3.97;;;3.08;;
56457;SDS011;42360;42.918;12.366;2022-12-18T16:33:41;4.07;;;3.10;;
56457;SDS011;42360;42.918;12.366;2022-12-18T16:36:07;6.32;;;3.63;;
56457;SDS011;42360;42.918;12.366;2022-12-18T16:38:32;5.13;;;3.70;;
56457;SDS011;42360;42.918;12.366;2022-12-18T16:40:58;6.05;;;3.47;;
56457;SDS011;42360;42.918;12.366;2022-12-18T16:43:42;4.47;;;3.60;;
56457;SDS011;42360;42.918;12.366;2022-12-18T16:46:08;4.78;;;3.33;;
56457;SDS011;42360;42.918;12.366;2022-12-18T16:48:33;4.57;;;3.38;;
56457;SDS011;42360;42.918;12.366;2022-12-18T16:51:00;5.95;;;3.25;;
56457;SDS011;42360;42.918;12.366;2022-12-18T16:53:27;3.63;;;3.10;;